createdAt,value
2023-05-06T00:00:06.524Z,101774.75
2023-05-06T00:02:33.372Z,101772.91
2023-05-06T00:05:00.156Z,101773.75
2023-05-06T00:07:26.885Z,101768.66
2023-05-06T00:09:53.436Z,101760.09
2023-05-06T00:12:20.435Z,101765.59
2023-05-06T00:14:47.036Z,101757.88
2023-05-06T00:17:13.719Z,101766.97
2023-05-06T00:19:40.341Z,101759.19
2023-05-06T00:22:07.021Z,101750.75
2023-05-06T00:24:33.565Z,101756.13
2023-05-06T00:27:00.301Z,101760.66
2023-05-06T00:29:26.846Z,101753.59
2023-05-06T00:31:53.614Z,101757.13
2023-05-06T00:34:20.226Z,101750.25
2023-05-06T00:36:47.172Z,101763.16
2023-05-06T00:39:13.804Z,101762.31
2023-05-06T00:41:40.575Z,101750.34
2023-05-06T00:44:07.321Z,101754.03
2023-05-06T00:46:34.147Z,101758.06
2023-05-06T00:49:00.935Z,101748.13
2023-05-06T00:51:27.919Z,101751.00
2023-05-06T00:53:54.625Z,101756.53
2023-05-06T00:56:22.637Z,101753.31
2023-05-06T00:58:49.481Z,101750.78
2023-05-06T01:01:17.566Z,101766.09
2023-05-06T01:03:44.426Z,101772.44
2023-05-06T01:06:37.864Z,101773.63
2023-05-06T01:09:17.988Z,101771.47
2023-05-06T01:11:50.342Z,101766.09
2023-05-06T01:14:33.204Z,101777.50
2023-05-06T01:17:07.993Z,101769.25
2023-05-06T01:19:53.509Z,101777.16
2023-05-06T01:22:20.381Z,101769.56
2023-05-06T01:24:47.031Z,101767.69
2023-05-06T01:27:14.707Z,101761.66
2023-05-06T01:29:44.179Z,101764.50
2023-05-06T01:32:19.786Z,101759.97
2023-05-06T01:35:03.768Z,101762.66
2023-05-06T01:37:41.421Z,101753.03
2023-05-06T01:40:09.314Z,101751.34
2023-05-06T01:42:37.543Z,101755.72
2023-05-06T01:45:08.161Z,101754.22
2023-05-06T01:47:36.042Z,101756.34
2023-05-06T01:50:03.485Z,101734.88
2023-05-06T01:52:30.085Z,101760.38
2023-05-06T01:54:56.630Z,101760.84
2023-05-06T01:57:23.271Z,101766.06
2023-05-06T01:59:49.955Z,101755.47
2023-05-06T02:02:16.902Z,101760.19
2023-05-06T02:04:43.548Z,101772.91
2023-05-06T02:07:10.216Z,101719.34
2023-05-06T02:09:36.889Z,101774.53
2023-05-06T02:12:03.646Z,101777.25
2023-05-06T02:14:30.297Z,101773.03
2023-05-06T02:16:56.834Z,101776.56
2023-05-06T02:19:24.431Z,101775.56
2023-05-06T02:21:51.200Z,101772.16
2023-05-06T02:24:17.770Z,101770.63
2023-05-06T02:26:46.378Z,101777.19
2023-05-06T02:29:12.886Z,101774.63
2023-05-06T02:31:39.461Z,101776.47
2023-05-06T02:34:06.821Z,101762.97
2023-05-06T02:36:33.807Z,101775.97
2023-05-06T02:39:00.347Z,101767.91
2023-05-06T02:41:27.016Z,101778.50
2023-05-06T02:43:53.577Z,101771.56
2023-05-06T02:46:20.399Z,101761.81
2023-05-06T02:48:47.018Z,101767.72
2023-05-06T02:51:13.666Z,101763.19
2023-05-06T02:53:40.230Z,101762.34
2023-05-06T02:56:07.364Z,101766.06
2023-05-06T02:58:34.948Z,101717.59
2023-05-06T03:01:01.670Z,101742.47
2023-05-06T03:03:29.345Z,101737.41
2023-05-06T03:05:55.936Z,101738.06
2023-05-06T03:08:22.537Z,101724.03
2023-05-06T03:10:50.336Z,101741.38
2023-05-06T03:13:16.949Z,101738.19
2023-05-06T03:15:43.629Z,101731.13
2023-05-06T03:18:10.424Z,101735.66
2023-05-06T03:20:38.042Z,101739.31
2023-05-06T03:23:04.697Z,101735.94
2023-05-06T03:25:31.323Z,101732.59
2023-05-06T03:27:57.996Z,101747.69
2023-05-06T03:30:24.734Z,101740.94
2023-05-06T03:32:51.395Z,101742.94
2023-05-06T03:35:18.519Z,101738.25
2023-05-06T03:37:45.233Z,101734.03
2023-05-06T03:40:12.256Z,101741.94
2023-05-06T03:42:38.853Z,101728.44
2023-05-06T03:45:07.186Z,101738.25
2023-05-06T03:47:34.887Z,101733.50
2023-05-06T03:50:01.528Z,101730.81
2023-05-06T03:52:28.380Z,101732.81
2023-05-06T03:54:57.118Z,101729.28
2023-05-06T03:57:23.895Z,101733.09
2023-05-06T03:59:50.524Z,101735.78
2023-05-06T04:02:17.248Z,101745.41
2023-05-06T04:04:44.443Z,101739.19
2023-05-06T04:07:11.081Z,101732.72
2023-05-06T04:09:38.655Z,101740.03
2023-05-06T04:12:05.412Z,101739.19
2023-05-06T04:14:32.108Z,101733.81
2023-05-06T04:16:58.997Z,101741.72
2023-05-06T04:19:25.606Z,101734.34
2023-05-06T04:21:52.303Z,101745.75
2023-05-06T04:24:18.963Z,101736.19
2023-05-06T04:26:45.684Z,101734.78
2023-05-06T04:29:12.305Z,101747.31
2023-05-06T04:31:39.106Z,101732.59
2023-05-06T04:34:05.659Z,101746.47
2023-05-06T04:36:32.350Z,101751.84
2023-05-06T04:39:01.721Z,101754.69
2023-05-06T04:41:31.122Z,101758.34
2023-05-06T04:44:00.085Z,101753.00
2023-05-06T04:46:26.677Z,101747.78
2023-05-06T04:48:53.339Z,101747.59
2023-05-06T04:51:19.958Z,101751.84
2023-05-06T04:53:46.818Z,101753.81
2023-05-06T04:56:13.407Z,101750.16
2023-05-06T04:58:40.036Z,101751.31
2023-05-06T05:01:09.061Z,101762.44
2023-05-06T05:03:35.801Z,101754.09
2023-05-06T05:06:02.500Z,101742.41
2023-05-06T05:08:29.116Z,101750.78
2023-05-06T05:10:55.773Z,101755.78
2023-05-06T05:13:23.427Z,101761.16
2023-05-06T05:15:49.991Z,101765.34
2023-05-06T05:18:16.635Z,101773.41
2023-05-06T05:20:43.262Z,101761.81
2023-05-06T05:23:10.003Z,101767.03
2023-05-06T05:25:37.650Z,101771.56
2023-05-06T05:28:05.322Z,101769.88
2023-05-06T05:30:32.023Z,101776.94
2023-05-06T05:32:59.970Z,101765.34
2023-05-06T05:35:26.658Z,101765.75
2023-05-06T05:37:53.255Z,101754.75
2023-05-06T05:40:21.112Z,101745.25
2023-05-06T05:42:47.799Z,101771.97
2023-05-06T05:45:15.444Z,101763.59
2023-05-06T05:47:42.023Z,101765.56
2023-05-06T05:50:09.898Z,101776.03
2023-05-06T05:52:37.441Z,101768.97
2023-05-06T05:55:04.328Z,101769.50
2023-05-06T05:57:32.175Z,101769.75
2023-05-06T05:59:58.738Z,101774.25
2023-05-06T06:02:25.434Z,101772.25
2023-05-06T06:04:52.111Z,101772.25
2023-05-06T06:07:18.900Z,101778.16
2023-05-06T06:09:46.915Z,101760.13
2023-05-06T06:12:13.576Z,101775.47
2023-05-06T06:14:40.314Z,101776.19
2023-05-06T06:17:08.138Z,101774.50
2023-05-06T06:19:34.698Z,101777.69
2023-05-06T06:22:02.503Z,101764.09
2023-05-06T06:24:29.181Z,101775.22
2023-05-06T06:26:55.775Z,101774.22
2023-05-06T06:29:22.335Z,101783.16
2023-05-06T06:31:51.034Z,101789.28
2023-05-06T06:34:17.736Z,101793.69
2023-05-06T06:36:45.671Z,101790.09
2023-05-06T06:39:13.232Z,101751.28
2023-05-06T06:41:39.988Z,101772.28
2023-05-06T06:44:06.631Z,101769.53
2023-05-06T06:46:34.354Z,101773.75
2023-05-06T06:49:01.913Z,101790.81
2023-05-06T06:51:28.560Z,101794.03
2023-05-06T06:53:55.334Z,101781.56
2023-05-06T06:56:24.263Z,101789.19
2023-05-06T06:58:52.991Z,101803.66
2023-05-06T07:01:20.898Z,101793.50
2023-05-06T07:03:47.579Z,101803.94
2023-05-06T07:06:14.232Z,101800.56
2023-05-06T07:08:40.878Z,101815.78
2023-05-06T07:11:07.492Z,101779.97
2023-05-06T07:13:34.224Z,101814.44
2023-05-06T07:16:00.849Z,101807.38
2023-05-06T07:18:28.557Z,101810.75
2023-05-06T07:20:55.193Z,101799.84
2023-05-06T07:23:22.096Z,101795.09
2023-05-06T07:25:48.881Z,101810.75
2023-05-06T07:28:15.778Z,101796.31
2023-05-06T07:30:42.684Z,101794.94
2023-05-06T07:33:09.458Z,101808.31
2023-05-06T07:35:36.799Z,101814.19
2023-05-06T07:38:03.388Z,101815.59
2023-05-06T07:40:29.973Z,101819.66
2023-05-06T07:42:56.499Z,101824.22
2023-05-06T07:45:24.414Z,101807.88
2023-05-06T07:47:51.603Z,101827.59
2023-05-06T07:50:18.296Z,101833.19
2023-05-06T07:52:44.900Z,101826.19
2023-05-06T07:55:11.824Z,101831.94
2023-05-06T07:57:39.080Z,101829.28
2023-05-06T08:00:06.534Z,101830.50
2023-05-06T08:02:33.353Z,101833.19
2023-05-06T08:05:00.313Z,101819.47
2023-05-06T08:07:26.884Z,101835.72
2023-05-06T08:09:53.614Z,101827.16
2023-05-06T08:12:20.640Z,101831.34
2023-05-06T08:14:47.404Z,101835.25
2023-05-06T08:17:14.286Z,101834.75
2023-05-06T08:19:40.900Z,101826.13
2023-05-06T08:22:07.441Z,101841.81
2023-05-06T08:24:34.206Z,101841.81
2023-05-06T08:27:02.334Z,101852.81
2023-05-06T08:29:31.297Z,101863.91
2023-05-06T08:31:58.138Z,101868.97
2023-05-06T08:34:24.890Z,101863.94
2023-05-06T08:36:52.114Z,101854.66
2023-05-06T08:39:18.845Z,101860.44
2023-05-06T08:41:48.650Z,101868.69
2023-05-06T08:44:19.778Z,101870.91
2023-05-06T08:46:48.227Z,101871.75
2023-05-06T08:49:14.910Z,101864.16
2023-05-06T08:51:44.072Z,101875.63
2023-05-06T08:54:12.082Z,101882.88
2023-05-06T08:56:53.211Z,101886.41
2023-05-06T08:59:25.165Z,101884.38
2023-05-06T09:01:52.629Z,101884.56
2023-05-06T09:04:20.000Z,101886.91
2023-05-06T09:06:46.607Z,101890.50
2023-05-06T09:09:15.098Z,101892.84
2023-05-06T09:11:41.676Z,101900.63
2023-05-06T09:14:15.274Z,101892.69
2023-05-06T09:16:46.347Z,101903.44
2023-05-06T09:19:14.221Z,101906.31
2023-05-06T09:21:45.759Z,101898.56
2023-05-06T09:24:14.125Z,101908.38
2023-05-06T09:26:43.345Z,101908.19
2023-05-06T09:29:10.760Z,101899.25
2023-05-06T09:31:42.765Z,101906.72
2023-05-06T09:34:09.458Z,101907.44
2023-05-06T09:36:38.659Z,101905.78
2023-05-06T09:39:06.613Z,101913.00
2023-05-06T09:41:33.604Z,101898.50
2023-05-06T09:44:00.484Z,101890.91
2023-05-06T09:46:28.130Z,101908.81
2023-05-06T09:48:57.307Z,101896.13
2023-05-06T09:51:24.023Z,101914.06
2023-05-06T09:53:51.828Z,101913.44
2023-05-06T09:56:21.446Z,101912.56
2023-05-06T09:58:48.625Z,101887.59
2023-05-06T10:01:25.107Z,101906.69
2023-05-06T10:04:04.867Z,101902.13
2023-05-06T10:06:33.070Z,101900.97
2023-05-06T10:09:00.990Z,101913.31
2023-05-06T10:11:31.185Z,101909.59
2023-05-06T10:14:00.282Z,101908.75
2023-05-06T10:16:27.972Z,101911.63
2023-05-06T10:18:56.064Z,101919.03
2023-05-06T10:21:27.507Z,101925.16
2023-05-06T10:24:09.289Z,101925.16
2023-05-06T10:26:41.300Z,101926.47
2023-05-06T10:29:10.343Z,101920.41
2023-05-06T10:31:44.308Z,101922.44
2023-05-06T10:34:11.010Z,101911.31
2023-05-06T10:36:39.641Z,101896.81
2023-05-06T10:39:13.692Z,101917.41
2023-05-06T10:41:42.331Z,101919.41
2023-05-06T10:44:10.221Z,101909.28
2023-05-06T10:47:00.764Z,101917.56
2023-05-06T10:49:27.835Z,101911.31
2023-05-06T10:52:13.837Z,101914.69
2023-05-06T10:54:51.636Z,101924.13
2023-05-06T10:57:19.398Z,101933.75
2023-05-06T10:59:47.769Z,101918.91
2023-05-06T11:02:17.444Z,101925.50
2023-05-06T11:04:50.779Z,101915.19
2023-05-06T11:07:26.740Z,101926.16
2023-05-06T11:10:06.157Z,101915.19
2023-05-06T11:12:49.055Z,101907.59
2023-05-06T11:15:26.946Z,101921.44
2023-05-06T11:17:55.856Z,101919.56
2023-05-06T11:20:25.345Z,101920.38
2023-05-06T11:22:53.282Z,101916.88
2023-05-06T11:25:47.746Z,101933.41
2023-05-06T11:28:15.423Z,101922.44
2023-05-06T11:30:53.869Z,101932.38
2023-05-06T11:33:24.162Z,101901.19
2023-05-06T11:35:50.768Z,101932.06
2023-05-06T11:38:17.351Z,101938.28
2023-05-06T11:40:44.043Z,101949.09
2023-05-06T11:43:12.724Z,101947.75
2023-05-06T11:45:44.752Z,101949.09
2023-05-06T11:48:15.887Z,101944.38
2023-05-06T11:50:49.319Z,101926.84
2023-05-06T11:53:21.231Z,101941.66
2023-05-06T11:55:49.224Z,101952.66
2023-05-06T11:58:17.863Z,101948.75
2023-05-06T12:00:53.443Z,101951.47
2023-05-06T12:03:21.509Z,101961.75
2023-05-06T12:05:49.405Z,101956.19
2023-05-06T12:08:26.857Z,101951.63
2023-05-06T12:10:57.989Z,101948.75
2023-05-06T12:13:24.924Z,101943.53
2023-05-06T12:15:57.866Z,101955.00
2023-05-06T12:18:26.291Z,101962.28
2023-05-06T12:20:56.947Z,101961.59
2023-05-06T12:23:23.836Z,101967.34
2023-05-06T12:26:04.736Z,101964.81
2023-05-06T12:28:32.909Z,101968.03
2023-05-06T12:31:00.823Z,101969.69
2023-05-06T12:33:27.463Z,101970.06
2023-05-06T12:35:57.093Z,101978.50
2023-05-06T12:38:24.670Z,101971.72
2023-05-06T12:40:55.153Z,101970.03
2023-05-06T12:43:32.972Z,101978.81
2023-05-06T12:46:07.646Z,101987.25
2023-05-06T12:48:34.537Z,101977.13
2023-05-06T12:51:16.940Z,101974.94
2023-05-06T12:53:44.595Z,101973.41
2023-05-06T12:56:11.155Z,101980.66
2023-05-06T12:58:38.620Z,101974.09
2023-05-06T13:01:07.760Z,101975.06
2023-05-06T13:03:40.925Z,101978.44
2023-05-06T13:06:07.716Z,101983.66
2023-05-06T13:08:34.232Z,101986.06
2023-05-06T13:11:02.481Z,101981.31
2023-05-06T13:13:30.042Z,101973.06
2023-05-06T13:15:58.858Z,101982.50
2023-05-06T13:18:25.385Z,101988.06
2023-05-06T13:20:52.106Z,101987.88
2023-05-06T13:23:19.633Z,101991.09
2023-05-06T13:26:02.790Z,101992.25
2023-05-06T13:28:29.875Z,101979.75
2023-05-06T13:30:56.474Z,101993.97
2023-05-06T13:33:23.328Z,101982.47
2023-05-06T13:35:49.836Z,101992.09
2023-05-06T13:38:16.679Z,101995.47
2023-05-06T13:40:46.809Z,101993.78
2023-05-06T13:43:13.426Z,101992.94
2023-05-06T13:45:40.064Z,101995.66
2023-05-06T13:48:07.616Z,101989.59
2023-05-06T13:50:36.032Z,101994.47
2023-05-06T13:53:04.104Z,101995.84
2023-05-06T13:55:31.746Z,101992.13
2023-05-06T13:57:58.349Z,101999.59
2023-05-06T14:00:25.238Z,101990.28
2023-05-06T14:02:51.955Z,101993.81
2023-05-06T14:05:18.624Z,101982.50
2023-05-06T14:07:45.349Z,101985.69
2023-05-06T14:10:12.109Z,101986.56
2023-05-06T14:12:38.954Z,101992.09
2023-05-06T14:15:07.548Z,101961.34
2023-05-06T14:17:35.533Z,101971.31
2023-05-06T14:20:05.011Z,101985.50
2023-05-06T14:22:32.859Z,101990.22
2023-05-06T14:24:59.415Z,101989.19
2023-05-06T14:27:26.917Z,101991.41
2023-05-06T14:29:53.692Z,101986.84
2023-05-06T14:32:22.297Z,101993.94
2023-05-06T14:34:48.898Z,101965.59
2023-05-06T14:37:15.560Z,101970.97
2023-05-06T14:39:42.373Z,101982.31
2023-05-06T14:42:10.141Z,101960.00
2023-05-06T14:44:36.839Z,101975.72
2023-05-06T14:47:03.388Z,101975.72
2023-05-06T14:49:30.001Z,101968.78
2023-05-06T14:51:57.246Z,101979.06
2023-05-06T14:54:23.894Z,101944.31
2023-05-06T14:56:51.462Z,101977.56
2023-05-06T14:59:18.831Z,101982.13
2023-05-06T15:01:45.592Z,101985.66
2023-05-06T15:04:12.228Z,101984.47
2023-05-06T15:06:38.863Z,101976.69
2023-05-06T15:09:05.554Z,101986.31
2023-05-06T15:11:32.442Z,101975.16
2023-05-06T15:13:59.133Z,101987.47
2023-05-06T15:16:25.820Z,101972.97
2023-05-06T15:18:52.550Z,101984.81
2023-05-06T15:21:21.936Z,101983.63
2023-05-06T15:23:49.643Z,101948.38
2023-05-06T15:26:16.217Z,101993.78
2023-05-06T15:28:42.876Z,101971.66
2023-05-06T15:31:09.505Z,101990.25
2023-05-06T15:33:36.120Z,101991.63
2023-05-06T15:36:02.759Z,101987.25
2023-05-06T15:38:42.278Z,102002.25
2023-05-06T15:41:10.851Z,101994.47
2023-05-06T15:43:38.768Z,101996.00
2023-05-06T15:46:05.575Z,101999.56
2023-05-06T15:48:34.479Z,101986.91
2023-05-06T15:51:05.236Z,102000.91
2023-05-06T15:53:31.871Z,101972.06
2023-05-06T15:56:13.142Z,101998.38
2023-05-06T15:58:44.959Z,102000.06
2023-05-06T16:01:11.779Z,102003.78
2023-05-06T16:03:41.266Z,102002.09
2023-05-06T16:06:09.308Z,102000.75
2023-05-06T16:08:36.856Z,101994.84
2023-05-06T16:11:05.457Z,102002.78
2023-05-06T16:13:32.530Z,102003.13
2023-05-06T16:16:01.240Z,102008.69
2023-05-06T16:18:29.191Z,102009.22
2023-05-06T16:20:55.960Z,102013.25
2023-05-06T16:23:22.691Z,102016.28
2023-05-06T16:25:51.288Z,102014.09
2023-05-06T16:28:17.928Z,102014.28
2023-05-06T16:30:46.390Z,102012.25
2023-05-06T16:33:13.391Z,102011.72
2023-05-06T16:35:42.962Z,102008.53
2023-05-06T16:38:09.561Z,102003.63
2023-05-06T16:40:47.474Z,102012.25
2023-05-06T16:43:16.062Z,102020.53
2023-05-06T16:45:45.392Z,101976.81
2023-05-06T16:48:14.065Z,102013.59
2023-05-06T16:50:42.279Z,102021.03
2023-05-06T16:53:09.083Z,102017.66
2023-05-06T16:55:36.225Z,102011.59
2023-05-06T16:58:03.716Z,102009.38
2023-05-06T17:00:31.823Z,102021.72
2023-05-06T17:02:58.708Z,102018.00
2023-05-06T17:05:28.053Z,102029.31
2023-05-06T17:07:54.698Z,102032.19
2023-05-06T17:10:22.483Z,102028.13
2023-05-06T17:12:49.172Z,102032.69
2023-05-06T17:15:16.172Z,102012.59
2023-05-06T17:17:43.828Z,102041.84
2023-05-06T17:20:10.921Z,102046.22
2023-05-06T17:22:37.725Z,102049.75
2023-05-06T17:25:04.689Z,102048.56
2023-05-06T17:27:31.399Z,102053.13
2023-05-06T17:30:00.800Z,102030.81
2023-05-06T17:32:27.346Z,102056.84
2023-05-06T17:34:54.088Z,102050.09
2023-05-06T17:37:20.692Z,102042.47
2023-05-06T17:39:47.370Z,102039.09
2023-05-06T17:42:14.393Z,102047.22
2023-05-06T17:44:42.834Z,102046.53
2023-05-06T17:47:09.796Z,102045.19
2023-05-06T17:49:37.320Z,102045.69
2023-05-06T17:52:04.142Z,102051.25
2023-05-06T17:54:34.826Z,102050.06
2023-05-06T17:57:03.756Z,102049.03
2023-05-06T17:59:30.491Z,102056.47
2023-05-06T18:01:57.229Z,102055.78
2023-05-06T18:04:24.028Z,102056.31
2023-05-06T18:06:50.752Z,102057.47
2023-05-06T18:09:17.531Z,102064.06
2023-05-06T18:11:44.517Z,102063.22
2023-05-06T18:14:11.420Z,102049.69
2023-05-06T18:16:39.122Z,102067.91
2023-05-06T18:19:05.776Z,102071.47
2023-05-06T18:21:34.017Z,102063.72
2023-05-06T18:24:10.197Z,102067.78
2023-05-06T18:26:45.278Z,102077.22
2023-05-06T18:29:12.624Z,102068.25
2023-05-06T18:31:39.459Z,102065.88
2023-05-06T18:34:06.384Z,102067.06
2023-05-06T18:36:34.968Z,102069.59
2023-05-06T18:39:02.360Z,102066.53
2023-05-06T18:41:28.939Z,102066.88
2023-05-06T18:43:55.745Z,102069.94
2023-05-06T18:46:22.724Z,102077.03
2023-05-06T18:48:49.410Z,102078.72
2023-05-06T18:51:17.358Z,102077.69
2023-05-06T18:53:44.976Z,102081.72
2023-05-06T18:56:11.960Z,102083.59
2023-05-06T18:58:39.658Z,102086.09
2023-05-06T19:01:07.844Z,102094.03
2023-05-06T19:03:34.933Z,102084.25
2023-05-06T19:06:03.250Z,102089.63
2023-05-06T19:08:31.740Z,102099.28
2023-05-06T19:11:01.900Z,102095.56
2023-05-06T19:13:28.867Z,102096.59
2023-05-06T19:15:57.134Z,102094.38
2023-05-06T19:18:24.025Z,102096.72
2023-05-06T19:20:50.873Z,102108.06
2023-05-06T19:23:17.617Z,102111.78
2023-05-06T19:25:44.231Z,102109.91
2023-05-06T19:28:10.975Z,102111.09
2023-05-06T19:30:37.630Z,102114.09
2023-05-06T19:33:04.759Z,102114.78
2023-05-06T19:35:33.647Z,102098.03
2023-05-06T19:38:00.292Z,102119.88
2023-05-06T19:40:26.945Z,102114.09
2023-05-06T19:42:54.949Z,102111.59
2023-05-06T19:45:21.488Z,102106.50
2023-05-06T19:47:48.137Z,102112.41
2023-05-06T19:50:14.803Z,102114.44
2023-05-06T19:52:41.668Z,102097.91
2023-05-06T19:55:09.487Z,102109.72
2023-05-06T19:57:37.396Z,102111.59
2023-05-06T20:00:05.971Z,102112.06
2023-05-06T20:02:32.990Z,102120.53
2023-05-06T20:05:00.612Z,102116.13
2023-05-06T20:07:33.462Z,102113.75
2023-05-06T20:10:00.264Z,102109.34
2023-05-06T20:12:27.337Z,102113.56
2023-05-06T20:14:57.242Z,102117.78
2023-05-06T20:17:23.966Z,102109.84
2023-05-06T20:19:50.701Z,102107.63
2023-05-06T20:22:17.289Z,102118.78
2023-05-06T20:24:45.114Z,102109.84
2023-05-06T20:27:11.798Z,102112.72
2023-05-06T20:29:38.420Z,102105.47
2023-05-06T20:32:05.434Z,102114.75
2023-05-06T20:34:32.183Z,102114.88
2023-05-06T20:36:59.827Z,102123.16
2023-05-06T20:39:26.374Z,102124.81
2023-05-06T20:41:52.899Z,102121.13
2023-05-06T20:44:19.772Z,102117.56
2023-05-06T20:46:46.394Z,102110.84
2023-05-06T20:49:13.057Z,102115.88
2023-05-06T20:51:39.628Z,102101.53
2023-05-06T20:54:06.313Z,102121.97
2023-05-06T20:56:32.926Z,102125.66
2023-05-06T20:58:59.749Z,102127.53
2023-05-06T21:01:27.412Z,102123.50
2023-05-06T21:03:54.158Z,102128.06
2023-05-06T21:06:20.712Z,102125.19
2023-05-06T21:08:47.268Z,102121.13
2023-05-06T21:11:14.073Z,102132.28
2023-05-06T21:13:41.616Z,102128.72
2023-05-06T21:16:08.365Z,102128.22
2023-05-06T21:18:35.224Z,102138.16
2023-05-06T21:21:03.931Z,102142.72
2023-05-06T21:23:31.078Z,102134.47
2023-05-06T21:25:59.358Z,102133.63
2023-05-06T21:28:26.021Z,102142.56
2023-05-06T21:30:52.754Z,102148.63
2023-05-06T21:33:19.387Z,102150.66
2023-05-06T21:35:46.026Z,102152.00
2023-05-06T21:38:12.708Z,102157.41
2023-05-06T21:40:39.279Z,102157.59
2023-05-06T21:43:06.065Z,102159.28
2023-05-06T21:45:32.977Z,102154.88
2023-05-06T21:47:59.703Z,102149.84
2023-05-06T21:50:26.809Z,102146.63
2023-05-06T21:52:54.470Z,102137.00
2023-05-06T21:55:21.660Z,102135.31
2023-05-06T21:57:48.499Z,102138.16
2023-05-06T22:00:16.007Z,102144.06
2023-05-06T22:02:42.894Z,102149.81
2023-05-06T22:05:09.908Z,102140.38
2023-05-06T22:07:36.573Z,102130.75
2023-05-06T22:10:04.195Z,102137.16
2023-05-06T22:12:31.991Z,102142.72
2023-05-06T22:14:58.566Z,102137.66
2023-05-06T22:17:25.153Z,102134.78
2023-05-06T22:19:52.252Z,102144.91
2023-05-06T22:22:20.542Z,102138.50
2023-05-06T22:24:48.277Z,102130.22
2023-05-06T22:27:14.978Z,102139.34
2023-05-06T22:29:41.648Z,102140.72
2023-05-06T22:32:10.264Z,102145.41
2023-05-06T22:34:36.767Z,102126.94
2023-05-06T22:37:08.718Z,102153.84
2023-05-06T22:39:35.711Z,102151.31
2023-05-06T22:42:03.311Z,102143.03
2023-05-06T22:44:29.871Z,102128.00
2023-05-06T22:46:56.521Z,102146.59
2023-05-06T22:49:23.553Z,102143.56
2023-05-06T22:51:50.227Z,102151.16
2023-05-06T22:54:16.974Z,102146.88
2023-05-06T22:56:43.622Z,102141.75
2023-05-06T22:59:10.634Z,102152.06
2023-05-06T23:01:37.295Z,102149.53
2023-05-06T23:04:07.386Z,102159.31
2023-05-06T23:06:34.301Z,102116.13
2023-05-06T23:09:00.929Z,102154.38
2023-05-06T23:11:27.563Z,102149.00
2023-05-06T23:13:54.238Z,102142.22
2023-05-06T23:16:21.125Z,102150.03
2023-05-06T23:18:49.859Z,102157.13
2023-05-06T23:21:16.501Z,102154.59
2023-05-06T23:23:43.150Z,102157.81
2023-05-06T23:26:10.307Z,102158.66
2023-05-06T23:28:36.928Z,102158.00
2023-05-06T23:31:03.795Z,102165.91
2023-05-06T23:33:30.478Z,102174.69
2023-05-06T23:35:59.814Z,102151.38
2023-05-06T23:38:27.379Z,102172.66
2023-05-06T23:40:54.379Z,102179.06
2023-05-06T23:43:21.153Z,102182.84
2023-05-06T23:45:47.737Z,102160.47
2023-05-06T23:48:14.385Z,102191.09
2023-05-06T23:50:41.047Z,102182.16
2023-05-06T23:53:07.653Z,102178.94
2023-05-06T23:55:34.400Z,102175.06
2023-05-06T23:58:01.056Z,102172.38
